createdAt,value
2019-04-07T00:00:08.283Z,26.43
2019-04-07T00:02:34.950Z,27.83
2019-04-07T00:05:11.262Z,26.97
2019-04-07T00:07:29.722Z,25.00
2019-04-07T00:09:56.851Z,25.97
2019-04-07T00:12:23.016Z,26.27
2019-04-07T00:14:49.242Z,28.43
2019-04-07T00:17:15.366Z,25.50
2019-04-07T00:19:41.355Z,27.63
2019-04-07T00:22:07.944Z,29.13
2019-04-07T00:24:34.275Z,30.37
2019-04-07T00:27:01.358Z,30.67
2019-04-07T00:29:27.938Z,29.57
2019-04-07T00:31:54.882Z,29.70
2019-04-07T00:34:22.116Z,30.80
2019-04-07T00:36:48.221Z,32.50
2019-04-07T00:39:14.800Z,28.37
2019-04-07T00:41:41.021Z,29.47
2019-04-07T00:44:07.455Z,28.23
2019-04-07T00:46:34.446Z,30.57
2019-04-07T00:49:00.676Z,29.23
2019-04-07T00:51:26.773Z,31.03
2019-04-07T00:53:53.093Z,27.90
2019-04-07T00:56:19.284Z,32.47
2019-04-07T00:58:45.685Z,32.43
2019-04-07T01:01:11.764Z,33.30
2019-04-07T01:03:38.076Z,30.90
2019-04-07T01:06:04.216Z,30.87
2019-04-07T01:08:30.955Z,31.07
2019-04-07T01:10:57.183Z,29.27
2019-04-07T01:13:23.213Z,29.33
2019-04-07T01:15:49.394Z,31.20
2019-04-07T01:18:15.474Z,29.07
2019-04-07T01:20:41.894Z,28.47
2019-04-07T01:23:08.150Z,30.30
2019-04-07T01:25:34.575Z,30.03
2019-04-07T01:28:00.878Z,28.10
2019-04-07T01:30:27.230Z,27.97
2019-04-07T01:32:53.436Z,28.53
2019-04-07T01:35:20.162Z,30.23
2019-04-07T01:37:47.211Z,32.07
2019-04-07T01:40:14.409Z,33.80
2019-04-07T01:42:41.016Z,33.23
2019-04-07T01:45:07.567Z,34.43
2019-04-07T01:47:34.278Z,32.10
2019-04-07T01:50:00.513Z,33.33
2019-04-07T01:52:27.285Z,33.47
2019-04-07T01:54:53.676Z,33.20
2019-04-07T01:57:20.156Z,34.87
2019-04-07T01:59:46.341Z,35.53
2019-04-07T02:02:12.566Z,33.33
2019-04-07T02:04:38.970Z,31.57
2019-04-07T02:07:05.758Z,30.07
2019-04-07T02:09:32.461Z,31.40
2019-04-07T02:11:58.614Z,30.80
2019-04-07T02:14:24.542Z,30.03
2019-04-07T02:16:51.164Z,31.00
2019-04-07T02:19:17.469Z,32.57
2019-04-07T02:21:43.826Z,30.87
2019-04-07T02:24:10.247Z,32.23
2019-04-07T02:26:36.848Z,31.97
2019-04-07T02:29:03.848Z,30.63
2019-04-07T02:31:29.962Z,30.17
2019-04-07T02:33:56.247Z,30.40
2019-04-07T02:36:27.441Z,31.40
2019-04-07T02:38:50.384Z,33.17
2019-04-07T02:41:16.406Z,34.13
2019-04-07T02:43:42.648Z,32.60
2019-04-07T02:46:09.638Z,32.63
2019-04-07T02:48:35.943Z,32.87
2019-04-07T02:51:01.935Z,36.37
2019-04-07T02:53:28.839Z,32.97
2019-04-07T02:55:55.151Z,31.60
2019-04-07T02:58:21.345Z,31.03
2019-04-07T03:00:47.454Z,32.57
2019-04-07T03:03:14.090Z,34.23
2019-04-07T03:05:40.536Z,35.13
2019-04-07T03:08:08.638Z,34.87
2019-04-07T03:10:35.196Z,33.20
2019-04-07T03:13:01.239Z,35.60
2019-04-07T03:15:27.499Z,34.90
2019-04-07T03:17:53.883Z,36.00
2019-04-07T03:20:19.939Z,35.13
2019-04-07T03:22:45.948Z,34.23
2019-04-07T03:25:13.258Z,35.10
2019-04-07T03:27:39.334Z,33.43
2019-04-07T03:30:06.158Z,33.53
2019-04-07T03:32:33.759Z,34.23
2019-04-07T03:35:00.297Z,33.57
2019-04-07T03:37:36.358Z,32.97
2019-04-07T03:39:54.162Z,33.37
2019-04-07T03:42:21.248Z,32.43
2019-04-07T03:44:47.433Z,34.10
2019-04-07T03:47:14.384Z,32.37
2019-04-07T03:49:41.395Z,33.87
2019-04-07T03:52:07.478Z,32.30
2019-04-07T03:54:33.681Z,32.67
2019-04-07T03:57:00.427Z,31.90
2019-04-07T03:59:26.894Z,33.73
2019-04-07T04:01:53.996Z,33.30
2019-04-07T04:04:20.980Z,31.63
2019-04-07T04:06:47.322Z,32.70
2019-04-07T04:09:14.018Z,30.77
2019-04-07T04:11:40.645Z,30.17
2019-04-07T04:14:06.625Z,31.07
2019-04-07T04:16:32.702Z,31.70
2019-04-07T04:18:58.830Z,31.23
2019-04-07T04:21:24.767Z,31.77
2019-04-07T04:23:51.646Z,32.03
2019-04-07T04:26:18.042Z,31.43
2019-04-07T04:28:44.320Z,32.17
2019-04-07T04:31:11.062Z,31.50
2019-04-07T04:33:37.764Z,33.77
2019-04-07T04:36:04.377Z,34.70
2019-04-07T04:38:31.720Z,34.13
2019-04-07T04:40:58.197Z,33.70
2019-04-07T04:43:24.363Z,32.60
2019-04-07T04:45:50.618Z,33.23
2019-04-07T04:48:17.373Z,33.80
2019-04-07T04:50:44.032Z,31.40
2019-04-07T04:53:10.722Z,30.03
2019-04-07T04:55:37.251Z,30.93
2019-04-07T04:58:04.169Z,32.40
2019-04-07T05:00:30.300Z,32.23
2019-04-07T05:02:57.012Z,31.43
2019-04-07T05:05:23.307Z,30.70
2019-04-07T05:07:57.675Z,30.47
2019-04-07T05:10:17.220Z,29.87
2019-04-07T05:12:43.438Z,29.27
2019-04-07T05:15:09.795Z,28.47
2019-04-07T05:17:35.801Z,28.10
2019-04-07T05:20:03.715Z,24.80
2019-04-07T05:22:29.902Z,25.10
2019-04-07T05:24:56.737Z,25.77
2019-04-07T05:27:22.923Z,25.30
2019-04-07T05:29:49.528Z,25.43
2019-04-07T05:32:15.786Z,25.87
2019-04-07T05:34:42.340Z,26.77
2019-04-07T05:37:08.754Z,24.60
2019-04-07T05:39:35.179Z,23.67
2019-04-07T05:42:01.319Z,24.20
2019-04-07T05:44:27.835Z,23.90
2019-04-07T05:46:53.954Z,23.07
2019-04-07T05:49:22.580Z,22.67
2019-04-07T05:51:47.995Z,23.00
2019-04-07T05:54:16.385Z,21.97
2019-04-07T05:56:42.454Z,22.57
2019-04-07T05:59:11.666Z,21.03
2019-04-07T06:01:36.721Z,21.03
2019-04-07T06:04:03.027Z,20.80
2019-04-07T06:06:29.001Z,20.37
2019-04-07T06:08:55.160Z,18.97
2019-04-07T06:11:21.638Z,18.57
2019-04-07T06:13:48.683Z,19.73
2019-04-07T06:16:15.199Z,19.03
2019-04-07T06:18:41.265Z,18.60
2019-04-07T06:21:07.765Z,18.10
2019-04-07T06:23:33.824Z,18.90
2019-04-07T06:26:00.294Z,17.80
2019-04-07T06:28:26.784Z,18.30
2019-04-07T06:30:53.046Z,18.40
2019-04-07T06:33:19.892Z,18.33
2019-04-07T06:35:47.319Z,17.83
2019-04-07T06:38:14.430Z,18.30
2019-04-07T06:40:40.602Z,19.00
2019-04-07T06:43:07.453Z,19.43
2019-04-07T06:45:33.860Z,18.97
2019-04-07T06:48:01.585Z,19.57
2019-04-07T06:50:28.097Z,20.33
2019-04-07T06:52:54.266Z,20.83
2019-04-07T06:55:20.302Z,20.43
2019-04-07T06:57:46.634Z,21.47
2019-04-07T07:00:13.998Z,20.47
2019-04-07T07:02:40.698Z,20.73
2019-04-07T07:05:07.059Z,20.80
2019-04-07T07:07:33.543Z,19.37
2019-04-07T07:10:00.671Z,19.50
2019-04-07T07:12:35.003Z,19.90
2019-04-07T07:14:55.143Z,20.13
2019-04-07T07:17:21.527Z,19.70
2019-04-07T07:19:47.903Z,20.37
2019-04-07T07:22:16.010Z,18.47
2019-04-07T07:24:41.928Z,17.90
2019-04-07T07:27:10.319Z,17.83
2019-04-07T07:29:36.266Z,17.53
2019-04-07T07:32:03.878Z,17.83
2019-04-07T07:34:31.643Z,16.60
2019-04-07T07:36:58.988Z,17.03
2019-04-07T07:39:26.256Z,16.27
2019-04-07T07:41:53.034Z,14.27
2019-04-07T07:44:19.985Z,14.23
2019-04-07T07:46:49.101Z,14.90
2019-04-07T07:49:14.794Z,15.50
2019-04-07T07:51:45.083Z,15.33
2019-04-07T07:54:08.844Z,15.67
2019-04-07T07:56:35.774Z,13.00
2019-04-07T07:59:02.592Z,14.43
2019-04-07T08:01:28.829Z,10.80
2019-04-07T08:03:55.697Z,11.77
2019-04-07T08:06:21.994Z,10.03
2019-04-07T08:08:48.561Z,10.83
2019-04-07T08:11:16.476Z,10.43
2019-04-07T08:13:45.566Z,10.57
2019-04-07T08:16:10.946Z,12.27
2019-04-07T08:18:40.393Z,10.70
2019-04-07T08:21:05.568Z,11.30
2019-04-07T08:23:31.734Z,11.23
2019-04-07T08:25:58.187Z,10.27
2019-04-07T08:28:25.444Z,11.20
2019-04-07T08:30:51.751Z,11.20
2019-04-07T08:33:17.974Z,11.07
2019-04-07T08:35:44.229Z,10.73
2019-04-07T08:38:10.988Z,10.63
2019-04-07T08:40:38.393Z,10.47
2019-04-07T08:43:04.975Z,9.90
2019-04-07T08:45:32.681Z,10.67
2019-04-07T08:47:59.477Z,12.43
2019-04-07T08:50:27.883Z,11.83
2019-04-07T08:52:53.851Z,10.50
2019-04-07T08:55:21.630Z,10.50
2019-04-07T08:57:48.231Z,10.67
2019-04-07T09:00:17.380Z,10.87
2019-04-07T09:02:43.802Z,9.90
2019-04-07T09:05:11.670Z,10.30
2019-04-07T09:07:38.011Z,9.73
2019-04-07T09:10:06.139Z,10.20
2019-04-07T09:12:32.278Z,9.30
2019-04-07T09:14:58.412Z,10.40
2019-04-07T09:17:32.102Z,8.90
2019-04-07T09:19:54.471Z,8.70
2019-04-07T09:22:22.871Z,11.27
2019-04-07T09:24:48.319Z,11.50
2019-04-07T09:27:18.562Z,10.03
2019-04-07T09:29:43.106Z,11.57
2019-04-07T09:32:09.880Z,10.97
2019-04-07T09:34:36.312Z,10.40
2019-04-07T09:37:03.239Z,9.77
2019-04-07T09:39:34.023Z,9.17
2019-04-07T09:41:57.425Z,9.33
2019-04-07T09:44:23.552Z,8.83
2019-04-07T09:46:51.093Z,8.50
2019-04-07T09:49:21.244Z,9.30
2019-04-07T09:51:46.195Z,9.43
2019-04-07T09:54:12.338Z,9.73
2019-04-07T09:56:38.479Z,11.10
2019-04-07T09:59:04.505Z,10.90
2019-04-07T10:01:30.830Z,10.93
2019-04-07T10:03:56.956Z,11.03
2019-04-07T10:06:23.079Z,10.67
2019-04-07T10:08:49.790Z,11.20
2019-04-07T10:11:16.104Z,11.17
2019-04-07T10:13:42.305Z,12.10
2019-04-07T10:16:09.989Z,12.43
2019-04-07T10:18:36.892Z,12.73
2019-04-07T10:21:03.314Z,12.97
2019-04-07T10:23:30.048Z,14.00
2019-04-07T10:25:57.108Z,14.30
2019-04-07T10:28:24.458Z,14.30
2019-04-07T10:30:51.770Z,15.37
2019-04-07T10:33:19.097Z,16.00
2019-04-07T10:35:45.633Z,16.63
2019-04-07T10:38:12.558Z,16.60
2019-04-07T10:40:38.908Z,16.43
2019-04-07T10:43:05.264Z,16.67
2019-04-07T10:45:31.284Z,15.53
2019-04-07T10:47:57.855Z,15.20
2019-04-07T10:50:25.693Z,15.10
2019-04-07T10:52:51.849Z,15.27
2019-04-07T10:55:18.078Z,14.73
2019-04-07T10:57:44.100Z,14.80
2019-04-07T11:00:11.021Z,14.90
2019-04-07T11:02:37.048Z,15.60
2019-04-07T11:05:05.196Z,14.10
2019-04-07T11:07:31.690Z,14.23
2019-04-07T11:09:57.738Z,13.60
2019-04-07T11:12:23.716Z,15.33
2019-04-07T11:14:50.133Z,15.73
2019-04-07T11:17:16.497Z,15.20
2019-04-07T11:19:43.481Z,16.27
2019-04-07T11:22:10.529Z,16.40
2019-04-07T11:24:37.113Z,16.13
2019-04-07T11:27:03.539Z,16.20
2019-04-07T11:29:29.599Z,17.77
2019-04-07T11:31:55.701Z,16.93
2019-04-07T11:34:22.584Z,18.63
2019-04-07T11:36:49.583Z,20.20
2019-04-07T11:39:16.114Z,17.97
2019-04-07T11:41:43.579Z,18.37
2019-04-07T11:44:09.691Z,15.97
2019-04-07T11:46:35.717Z,15.57
2019-04-07T11:49:02.464Z,16.83
2019-04-07T11:51:28.679Z,15.93
2019-04-07T11:53:54.806Z,13.67
2019-04-07T11:56:21.734Z,13.23
2019-04-07T11:58:48.716Z,13.13
2019-04-07T12:01:15.641Z,13.63
2019-04-07T12:03:42.899Z,12.97
2019-04-07T12:06:11.629Z,11.43
2019-04-07T12:08:37.726Z,11.43
2019-04-07T12:11:06.243Z,12.67
2019-04-07T12:13:33.023Z,12.47
2019-04-07T12:15:59.414Z,12.97
2019-04-07T12:18:25.478Z,11.33
2019-04-07T12:20:51.874Z,13.30
2019-04-07T12:23:22.895Z,13.63
2019-04-07T12:25:46.106Z,13.77
2019-04-07T12:28:16.086Z,12.87
2019-04-07T12:30:40.201Z,13.17
2019-04-07T12:33:07.930Z,12.97
2019-04-07T12:35:34.292Z,11.40
2019-04-07T12:38:00.375Z,12.23
2019-04-07T12:40:26.439Z,12.80
2019-04-07T12:42:53.419Z,13.20
2019-04-07T12:45:19.407Z,12.70
2019-04-07T12:47:45.878Z,13.17
2019-04-07T12:50:15.782Z,11.77
2019-04-07T12:52:40.970Z,12.20
2019-04-07T12:55:08.061Z,11.93
2019-04-07T12:57:37.731Z,11.73
2019-04-07T13:02:56.692Z,11.40
2019-04-07T13:05:22.953Z,10.93
2019-04-07T13:07:51.368Z,10.67
2019-04-07T13:10:17.266Z,11.80
2019-04-07T13:12:43.344Z,11.77
2019-04-07T13:15:12.647Z,12.33
2019-04-07T13:17:38.101Z,12.10
2019-04-07T13:20:06.222Z,11.43
2019-04-07T13:22:34.087Z,12.33
2019-04-07T13:25:01.399Z,11.37
2019-04-07T13:27:27.872Z,11.87
2019-04-07T13:29:54.275Z,11.60
2019-04-07T13:32:20.700Z,11.90
2019-04-07T13:34:46.966Z,12.07
2019-04-07T13:37:13.505Z,11.53
2019-04-07T13:39:41.898Z,11.80
2019-04-07T13:42:08.811Z,11.87
2019-04-07T13:44:38.803Z,10.63
2019-04-07T13:47:06.219Z,11.40
2019-04-07T13:49:32.053Z,11.67
2019-04-07T13:51:58.858Z,11.53
2019-04-07T13:54:25.375Z,12.33
2019-04-07T13:56:52.185Z,12.20
2019-04-07T13:59:19.372Z,12.30
2019-04-07T14:01:46.192Z,13.10
2019-04-07T14:04:13.368Z,14.37
2019-04-07T14:06:44.509Z,13.83
2019-04-07T14:09:07.778Z,14.20
2019-04-07T14:11:34.975Z,13.70
2019-04-07T14:14:01.390Z,13.23
2019-04-07T14:16:27.684Z,11.80
2019-04-07T14:18:54.600Z,12.20
2019-04-07T14:21:21.478Z,11.50
2019-04-07T14:23:47.490Z,13.87
2019-04-07T14:26:13.647Z,14.13
2019-04-07T14:28:40.136Z,13.27
2019-04-07T14:31:06.549Z,13.30
2019-04-07T14:33:32.711Z,12.00
2019-04-07T14:35:59.676Z,11.10
2019-04-07T14:38:26.573Z,12.63
2019-04-07T14:40:52.848Z,12.03
2019-04-07T14:43:19.069Z,12.63
2019-04-07T14:45:47.558Z,11.67
2019-04-07T14:48:13.017Z,11.93
2019-04-07T14:50:39.667Z,13.27
2019-04-07T14:53:06.598Z,13.23
2019-04-07T14:55:32.914Z,13.50
2019-04-07T14:57:59.097Z,13.07
2019-04-07T15:00:27.012Z,13.60
2019-04-07T15:02:53.174Z,13.07
2019-04-07T15:05:23.244Z,12.97
2019-04-07T15:07:48.325Z,12.73
2019-04-07T15:10:16.853Z,12.57
2019-04-07T15:12:44.150Z,13.47
2019-04-07T15:15:11.830Z,13.37
2019-04-07T15:17:38.014Z,13.93
2019-04-07T15:20:07.461Z,14.27
2019-04-07T15:22:34.459Z,12.83
2019-04-07T15:25:01.409Z,13.63
2019-04-07T15:27:28.328Z,13.73
2019-04-07T15:29:54.481Z,12.93
2019-04-07T15:32:24.331Z,14.30
2019-04-07T15:34:49.023Z,13.23
2019-04-07T15:37:15.467Z,13.83
2019-04-07T15:39:44.468Z,14.20
2019-04-07T15:42:11.551Z,14.53
2019-04-07T15:44:39.620Z,14.80
2019-04-07T15:47:07.268Z,15.43
2019-04-07T15:49:34.305Z,14.33
2019-04-07T15:52:01.493Z,15.57
2019-04-07T15:54:28.605Z,15.60
2019-04-07T15:56:55.309Z,15.40
2019-04-07T15:59:22.842Z,14.77
2019-04-07T16:01:49.331Z,14.27
2019-04-07T16:04:15.972Z,15.17
2019-04-07T16:06:44.228Z,14.90
2019-04-07T16:09:17.718Z,14.90
2019-04-07T16:11:39.197Z,14.47
2019-04-07T16:14:12.506Z,14.20
2019-04-07T16:16:33.486Z,14.37
2019-04-07T16:18:59.471Z,14.03
2019-04-07T16:21:28.444Z,13.80
2019-04-07T16:23:54.383Z,13.73
2019-04-07T16:26:21.769Z,14.07
2019-04-07T16:28:48.485Z,14.07
2019-04-07T16:31:14.769Z,14.17
2019-04-07T16:33:41.043Z,14.00
2019-04-07T16:36:07.196Z,14.47
2019-04-07T16:38:33.156Z,14.30
2019-04-07T16:40:59.103Z,14.37
2019-04-07T16:43:26.164Z,13.73
2019-04-07T16:45:53.472Z,14.47
2019-04-07T16:48:19.821Z,13.37
2019-04-07T16:50:51.004Z,14.20
2019-04-07T16:53:16.339Z,13.27
2019-04-07T16:55:47.416Z,13.13
2019-04-07T16:58:11.684Z,13.10
2019-04-07T17:00:38.379Z,13.37
2019-04-07T17:03:07.646Z,13.20
2019-04-07T17:05:33.756Z,13.47
2019-04-07T17:08:01.728Z,12.47
2019-04-07T17:10:32.791Z,13.30
2019-04-07T17:13:00.444Z,13.80
2019-04-07T17:15:27.380Z,13.93
2019-04-07T17:17:54.656Z,14.00
2019-04-07T17:20:21.101Z,13.70
2019-04-07T17:22:48.457Z,14.13
2019-04-07T17:25:15.607Z,13.87
2019-04-07T17:27:42.559Z,13.93
2019-04-07T17:30:17.177Z,13.77
2019-04-07T17:32:43.493Z,13.97
2019-04-07T17:35:14.297Z,13.27
2019-04-07T17:37:40.581Z,14.23
2019-04-07T17:40:11.283Z,14.13
2019-04-07T17:42:35.332Z,14.40
2019-04-07T17:45:02.015Z,13.63
2019-04-07T17:47:31.109Z,13.53
2019-04-07T17:49:59.163Z,13.77
2019-04-07T17:52:24.740Z,13.47
2019-04-07T17:54:54.024Z,13.17
2019-04-07T17:57:19.329Z,13.97
2019-04-07T17:59:47.153Z,13.40
2019-04-07T18:02:14.222Z,13.50
2019-04-07T18:04:42.941Z,13.10
2019-04-07T18:07:08.928Z,14.00
2019-04-07T18:09:35.140Z,13.40
2019-04-07T18:12:06.811Z,14.00
2019-04-07T18:14:30.170Z,14.13
2019-04-07T18:16:57.002Z,13.47
2019-04-07T18:19:27.101Z,13.90
2019-04-07T18:21:53.402Z,14.20
2019-04-07T18:24:19.164Z,14.00
2019-04-07T18:26:45.497Z,14.17
2019-04-07T18:29:13.567Z,14.20
2019-04-07T18:31:40.291Z,13.93
2019-04-07T18:34:06.735Z,14.80
2019-04-07T18:36:34.720Z,13.90
2019-04-07T18:39:00.652Z,14.10
2019-04-07T18:41:30.788Z,15.37
2019-04-07T18:44:03.445Z,15.60
2019-04-07T18:46:23.697Z,15.60
2019-04-07T18:48:49.948Z,16.43
2019-04-07T18:51:16.265Z,16.40
2019-04-07T18:53:42.827Z,16.57
2019-04-07T18:56:10.429Z,16.47
2019-04-07T18:58:36.866Z,16.93
2019-04-07T19:01:08.170Z,16.90
2019-04-07T19:03:31.090Z,16.97
2019-04-07T19:05:57.542Z,16.53
2019-04-07T19:08:25.037Z,16.90
2019-04-07T19:10:52.925Z,16.73
2019-04-07T19:13:25.404Z,17.03
2019-04-07T19:15:47.865Z,17.53
2019-04-07T19:18:14.907Z,18.30
2019-04-07T19:20:42.017Z,17.60
2019-04-07T19:23:09.844Z,17.97
2019-04-07T19:25:36.052Z,18.23
2019-04-07T19:28:04.655Z,17.13
2019-04-07T19:30:31.066Z,17.93
2019-04-07T19:32:57.940Z,18.00
2019-04-07T19:35:24.028Z,17.30
2019-04-07T19:37:50.661Z,17.47
2019-04-07T19:40:16.999Z,18.33
2019-04-07T19:42:47.078Z,18.27
2019-04-07T19:45:13.301Z,18.03
2019-04-07T19:47:39.658Z,17.97
2019-04-07T19:50:09.759Z,18.27
2019-04-07T19:52:37.173Z,17.17
2019-04-07T19:55:03.996Z,17.37
2019-04-07T19:57:30.114Z,17.93
2019-04-07T19:59:56.982Z,16.70
2019-04-07T20:02:24.069Z,17.37
2019-04-07T20:04:53.455Z,18.23
2019-04-07T20:07:18.298Z,16.90
2019-04-07T20:09:48.359Z,17.23
2019-04-07T20:12:14.236Z,16.53
2019-04-07T20:14:49.344Z,17.80
2019-04-07T20:17:08.440Z,18.03
2019-04-07T20:19:38.555Z,17.30
2019-04-07T20:22:04.722Z,17.50
2019-04-07T20:24:34.562Z,18.07
2019-04-07T20:26:59.134Z,17.83
2019-04-07T20:29:25.809Z,18.00
2019-04-07T20:31:53.369Z,17.73
2019-04-07T20:34:19.819Z,18.73
2019-04-07T20:36:45.936Z,18.87
2019-04-07T20:39:11.969Z,17.17
2019-04-07T20:41:38.055Z,18.33
2019-04-07T20:44:04.108Z,18.37
2019-04-07T20:46:30.124Z,18.30
2019-04-07T20:48:56.189Z,19.47
2019-04-07T20:51:22.224Z,16.93
2019-04-07T20:53:49.281Z,17.60
2019-04-07T20:56:15.445Z,18.03
2019-04-07T20:58:47.263Z,18.30
2019-04-07T21:01:14.297Z,19.27
2019-04-07T21:03:38.462Z,18.13
2019-04-07T21:06:04.558Z,19.13
2019-04-07T21:08:32.278Z,18.70
2019-04-07T21:10:58.960Z,19.77
2019-04-07T21:13:25.281Z,19.30
2019-04-07T21:15:51.305Z,20.10
2019-04-07T21:18:17.912Z,20.50
2019-04-07T21:20:44.273Z,20.23
2019-04-07T21:23:14.035Z,20.23
2019-04-07T21:25:39.222Z,20.60
2019-04-07T21:28:07.320Z,19.30
2019-04-07T21:30:34.715Z,19.70
2019-04-07T21:33:00.740Z,21.40
2019-04-07T21:35:29.182Z,20.00
2019-04-07T21:37:55.102Z,19.17
2019-04-07T21:40:21.159Z,20.20
2019-04-07T21:42:48.275Z,21.63
2019-04-07T21:45:15.354Z,20.47
2019-04-07T21:47:41.377Z,21.23
2019-04-07T21:50:10.004Z,22.47
2019-04-07T21:52:36.230Z,20.27
2019-04-07T21:55:06.024Z,21.20
2019-04-07T21:57:32.536Z,20.97
2019-04-07T21:59:59.524Z,20.70
2019-04-07T22:02:25.822Z,18.67
2019-04-07T22:04:54.625Z,20.80
2019-04-07T22:07:20.207Z,19.33
2019-04-07T22:09:49.447Z,21.03
2019-04-07T22:12:14.684Z,20.67
2019-04-07T22:14:43.045Z,20.63
2019-04-07T22:17:09.464Z,21.30
2019-04-07T22:19:36.057Z,18.80
2019-04-07T22:22:02.490Z,20.63
2019-04-07T22:24:31.331Z,19.47
2019-04-07T22:26:57.192Z,21.07
2019-04-07T22:29:23.245Z,20.47
2019-04-07T22:31:49.332Z,22.47
2019-04-07T22:34:16.418Z,21.63
2019-04-07T22:36:45.485Z,22.23
2019-04-07T22:39:10.586Z,22.43
2019-04-07T22:41:37.014Z,23.50
2019-04-07T22:44:05.087Z,21.53
2019-04-07T22:46:31.219Z,20.47
2019-04-07T22:48:58.736Z,22.13
2019-04-07T22:51:25.200Z,23.43
2019-04-07T22:53:54.365Z,22.47
2019-04-07T22:56:20.252Z,23.63
2019-04-07T22:58:46.652Z,22.03
2019-04-07T23:01:12.984Z,22.57
2019-04-07T23:03:39.152Z,22.87
2019-04-07T23:06:05.246Z,24.20
2019-04-07T23:08:31.265Z,23.03
2019-04-07T23:10:58.037Z,23.33
2019-04-07T23:13:24.125Z,22.67
2019-04-07T23:15:50.408Z,24.57
2019-04-07T23:18:16.476Z,23.63
2019-04-07T23:20:42.493Z,23.77
2019-04-07T23:23:08.869Z,23.43
2019-04-07T23:25:34.979Z,23.80
2019-04-07T23:28:02.689Z,24.97
2019-04-07T23:30:28.779Z,25.47
2019-04-07T23:32:55.620Z,24.77
2019-04-07T23:35:22.194Z,24.43
2019-04-07T23:37:48.860Z,26.93
2019-04-07T23:40:16.223Z,24.40
2019-04-07T23:42:42.615Z,22.50
2019-04-07T23:45:10.281Z,23.63
2019-04-07T23:47:36.670Z,23.07
2019-04-07T23:50:05.624Z,23.50
2019-04-07T23:52:31.749Z,24.10
2019-04-07T23:54:58.711Z,23.40
2019-04-07T23:57:24.919Z,22.97
2019-04-07T23:59:50.986Z,23.33
